Weather at Mauke Airport

Public forecast

Using degrees Celsius for public forecast. Weather courtesy of forecast.io.

Current aviation weather report (METAR) for Mauke Airport

Retrieved 2022/01/18 08:00 UTC (24 minutes ago):

NCMK 180800Z AUTO 06005KT //// ////// ///// Q1007

Closest aviation forecast (TAF) to Mauke Airport

Closest forecast is Rarotonga International Airport, 152.4 nm (282.2 km) WSW. Retrieved 2022/01/18 06:00 UTC (2 hours ago):

TAF NCRG 180505Z 1806/1906 06020G30KT 9999 -RA SCT014 BKN019 BKN040 TEMPO 1806/1818 06025G45KT 3000 +TSRA BKN012 SCT015CB